createdAt,value
2019-04-12T00:01:39.105Z,80.40
2019-04-12T00:04:05.869Z,80.10
2019-04-12T00:06:33.692Z,80.40
2019-04-12T00:09:00.716Z,80.30
2019-04-12T00:11:27.496Z,80.30
2019-04-12T00:13:54.328Z,80.10
2019-04-12T00:16:21.312Z,80.00
2019-04-12T00:18:48.197Z,80.00
2019-04-12T00:21:15.549Z,80.50
2019-04-12T00:23:43.018Z,80.90
2019-04-12T00:26:11.062Z,81.00
2019-04-12T00:28:37.902Z,80.80
2019-04-12T00:31:04.676Z,81.00
2019-04-12T00:33:31.505Z,81.20
2019-04-12T00:35:58.404Z,81.40
2019-04-12T00:38:26.856Z,81.90
2019-04-12T00:40:53.820Z,82.10
2019-04-12T00:43:20.737Z,82.30
2019-04-12T00:45:47.601Z,82.40
2019-04-12T00:48:14.392Z,82.50
2019-04-12T00:50:42.144Z,82.60
2019-04-12T00:53:11.072Z,83.00
2019-04-12T00:55:37.757Z,83.00
2019-04-12T00:58:04.616Z,82.90
2019-04-12T01:00:33.201Z,82.60
2019-04-12T01:03:01.850Z,82.90
2019-04-12T01:05:30.716Z,82.60
2019-04-12T01:08:08.020Z,82.90
2019-04-12T01:10:39.414Z,82.50
2019-04-12T01:13:07.240Z,82.60
2019-04-12T01:15:34.708Z,82.30
2019-04-12T01:18:02.701Z,82.40
2019-04-12T01:20:35.777Z,82.60
2019-04-12T01:23:02.653Z,82.70
2019-04-12T01:25:29.436Z,82.50
2019-04-12T01:27:56.408Z,82.60
2019-04-12T01:30:23.245Z,82.50
2019-04-12T01:32:50.029Z,82.60
2019-04-12T01:35:16.909Z,82.10
2019-04-12T01:37:43.686Z,81.80
2019-04-12T01:40:10.516Z,82.60
2019-04-12T01:42:37.296Z,82.50
2019-04-12T01:45:05.537Z,82.30
2019-04-12T01:47:32.364Z,82.70
2019-04-12T01:49:59.196Z,82.50
2019-04-12T01:52:25.976Z,82.30
2019-04-12T01:54:52.808Z,82.40
2019-04-12T01:57:21.307Z,82.30
2019-04-12T01:59:48.276Z,82.60
2019-04-12T02:02:15.056Z,82.50
2019-04-12T02:04:41.827Z,82.10
2019-04-12T02:07:08.668Z,82.40
2019-04-12T02:09:35.500Z,82.60
2019-04-12T02:12:02.280Z,82.70
2019-04-12T02:14:29.120Z,82.40
2019-04-12T02:16:55.901Z,82.30
2019-04-12T02:19:22.832Z,82.40
2019-04-12T02:21:49.607Z,82.60
2019-04-12T02:24:16.452Z,83.20
2019-04-12T02:26:43.284Z,83.40
2019-04-12T02:29:10.076Z,82.70
2019-04-12T02:31:47.529Z,82.60
2019-04-12T02:34:14.310Z,82.50
2019-04-12T02:36:41.197Z,83.20
2019-04-12T02:39:08.179Z,83.30
2019-04-12T02:41:35.609Z,83.00
2019-04-12T02:44:02.992Z,83.10
2019-04-12T02:46:48.579Z,82.60
2019-04-12T02:49:21.193Z,82.90
2019-04-12T02:51:53.472Z,82.60
2019-04-12T02:54:27.626Z,82.80
2019-04-12T02:57:01.077Z,83.00
2019-04-12T02:59:30.179Z,83.20
2019-04-12T03:01:58.709Z,83.50
2019-04-12T03:04:25.537Z,83.30
2019-04-12T03:06:52.416Z,84.00
2019-04-12T03:09:23.074Z,83.70
2019-04-12T03:11:52.930Z,83.50
2019-04-12T03:14:20.671Z,83.40
2019-04-12T03:16:49.636Z,83.30
2019-04-12T03:19:16.561Z,83.80
2019-04-12T03:21:43.993Z,83.90
2019-04-12T03:24:11.142Z,84.00
2019-04-12T03:26:38.430Z,83.60
2019-04-12T03:29:05.635Z,83.70
2019-04-12T03:31:32.584Z,83.60
2019-04-12T03:34:00.141Z,83.70
2019-04-12T03:36:28.232Z,84.00
2019-04-12T03:38:55.822Z,84.00
2019-04-12T03:41:23.753Z,84.30
2019-04-12T03:43:50.682Z,84.20
2019-04-12T03:46:17.761Z,84.10
2019-04-12T03:48:44.897Z,83.90
2019-04-12T03:51:11.978Z,84.20
2019-04-12T03:53:38.816Z,84.20
2019-04-12T03:56:08.604Z,84.20
2019-04-12T03:58:34.377Z,84.40
2019-04-12T04:01:02.018Z,84.50
2019-04-12T04:03:29.229Z,84.70
2019-04-12T04:05:56.175Z,84.70
2019-04-12T04:08:23.027Z,84.60
2019-04-12T04:10:50.193Z,85.10
2019-04-12T04:13:17.272Z,85.30
2019-04-12T04:15:44.808Z,85.20
2019-04-12T04:18:22.871Z,85.50
2019-04-12T04:20:55.099Z,85.50
2019-04-12T04:23:41.744Z,85.80
2019-04-12T04:26:23.226Z,85.70
2019-04-12T04:29:00.772Z,85.50
2019-04-12T04:31:38.785Z,85.10
2019-04-12T04:34:05.606Z,85.10
2019-04-12T04:36:32.778Z,85.60
2019-04-12T04:38:59.754Z,85.60
2019-04-12T04:41:26.791Z,85.80
2019-04-12T04:43:53.565Z,85.90
2019-04-12T04:46:20.557Z,85.70
2019-04-12T04:48:47.399Z,85.80
2019-04-12T04:51:14.392Z,85.80
2019-04-12T04:53:41.412Z,85.50
2019-04-12T04:56:08.502Z,85.60
2019-04-12T04:58:35.736Z,85.70
2019-04-12T05:01:02.516Z,85.70
2019-04-12T05:03:29.441Z,85.60
2019-04-12T05:05:56.476Z,85.60
2019-04-12T05:08:23.625Z,85.90
2019-04-12T05:10:50.460Z,86.00
2019-04-12T05:13:17.496Z,85.30
2019-04-12T05:15:44.374Z,85.50
2019-04-12T05:18:11.612Z,85.60
2019-04-12T05:20:38.388Z,85.10
2019-04-12T05:23:05.220Z,85.30
2019-04-12T05:25:32.445Z,85.20
2019-04-12T05:27:59.726Z,85.10
2019-04-12T05:30:26.865Z,84.50
2019-04-12T05:32:53.805Z,84.00
2019-04-12T05:35:21.025Z,83.80
2019-04-12T05:37:48.115Z,83.00
2019-04-12T05:40:15.004Z,83.50
2019-04-12T05:42:41.785Z,83.40
2019-04-12T05:45:10.317Z,83.50
2019-04-12T05:47:41.924Z,83.60
2019-04-12T05:50:11.309Z,83.60
2019-04-12T05:52:38.140Z,83.70
2019-04-12T05:55:06.780Z,83.80
2019-04-12T05:57:34.313Z,83.80
2019-04-12T06:00:01.140Z,83.80
2019-04-12T06:02:29.730Z,83.40
2019-04-12T06:04:58.875Z,82.90
2019-04-12T06:07:25.248Z,83.20
2019-04-12T06:09:52.028Z,82.90
2019-04-12T06:12:18.960Z,83.00
2019-04-12T06:14:46.192Z,82.80
2019-04-12T06:17:13.524Z,82.70
2019-04-12T06:19:41.405Z,83.70
2019-04-12T06:22:12.796Z,83.50
2019-04-12T06:24:40.033Z,83.60
2019-04-12T06:27:17.888Z,82.50
2019-04-12T06:29:45.161Z,82.00
2019-04-12T06:32:12.102Z,81.00
2019-04-12T06:34:38.937Z,80.60
2019-04-12T06:37:05.838Z,80.30
2019-04-12T06:39:32.656Z,80.50
2019-04-12T06:41:59.799Z,81.30
2019-04-12T06:44:26.628Z,80.80
2019-04-12T06:46:53.557Z,81.40
2019-04-12T06:49:20.407Z,81.80
2019-04-12T06:51:47.188Z,80.60
2019-04-12T06:54:13.976Z,80.50
2019-04-12T06:56:51.269Z,79.70
2019-04-12T06:59:18.048Z,78.80
2019-04-12T07:01:55.753Z,79.70
2019-04-12T07:04:24.332Z,79.70
2019-04-12T07:06:51.121Z,78.70
2019-04-12T07:09:17.963Z,78.60
2019-04-12T07:11:44.833Z,79.00
2019-04-12T07:14:11.662Z,78.70
2019-04-12T07:16:38.504Z,78.40
2019-04-12T07:19:05.332Z,79.30
2019-04-12T07:21:32.160Z,79.00
2019-04-12T07:23:59.004Z,78.70
2019-04-12T07:26:25.824Z,78.70
2019-04-12T07:28:52.616Z,78.50
2019-04-12T07:31:19.449Z,77.80
2019-04-12T07:33:46.229Z,76.80
2019-04-12T07:36:13.062Z,77.20
2019-04-12T07:38:39.882Z,77.10
2019-04-12T07:41:06.777Z,77.50
2019-04-12T07:43:33.552Z,76.20
2019-04-12T07:46:00.365Z,76.90
2019-04-12T07:48:27.191Z,76.30
2019-04-12T07:51:10.893Z,75.90
2019-04-12T07:53:42.409Z,75.90
2019-04-12T07:56:14.020Z,76.00
2019-04-12T07:58:59.299Z,76.00
2019-04-12T08:01:43.076Z,74.90
2019-04-12T08:04:23.668Z,75.70
2019-04-12T08:07:01.392Z,75.70
2019-04-12T08:09:28.172Z,74.90
2019-04-12T08:11:55.015Z,74.40
2019-04-12T08:14:21.848Z,74.40
2019-04-12T08:16:48.676Z,73.60
2019-04-12T08:19:15.507Z,74.50
2019-04-12T08:21:42.591Z,74.70
2019-04-12T08:24:09.421Z,74.10
2019-04-12T08:26:36.812Z,73.80
2019-04-12T08:29:03.648Z,74.00
2019-04-12T08:31:30.485Z,73.40
2019-04-12T08:33:57.260Z,73.00
2019-04-12T08:36:26.042Z,73.50
2019-04-12T08:38:52.731Z,73.70
2019-04-12T08:41:19.568Z,73.30
2019-04-12T08:43:46.341Z,72.90
2019-04-12T08:46:13.172Z,73.70
2019-04-12T08:48:39.980Z,74.30
2019-04-12T08:51:06.789Z,74.00
2019-04-12T08:53:34.561Z,74.60
2019-04-12T08:56:01.617Z,73.80
2019-04-12T08:58:30.680Z,74.30
2019-04-12T09:00:57.381Z,73.00
2019-04-12T09:03:24.168Z,73.20
2019-04-12T09:05:50.917Z,74.20
2019-04-12T09:08:17.902Z,74.40
2019-04-12T09:10:44.744Z,74.40
2019-04-12T09:13:11.695Z,74.70
2019-04-12T09:15:38.521Z,75.80
2019-04-12T09:18:05.431Z,76.40
2019-04-12T09:20:42.981Z,75.60
2019-04-12T09:23:14.180Z,74.10
2019-04-12T09:25:42.794Z,73.90
2019-04-12T09:28:10.011Z,73.70
2019-04-12T09:30:38.223Z,73.70
2019-04-12T09:33:05.055Z,72.90
2019-04-12T09:35:31.933Z,72.40
2019-04-12T09:37:58.760Z,71.70
2019-04-12T09:40:25.536Z,72.70
2019-04-12T09:42:52.769Z,72.10
2019-04-12T09:45:19.596Z,71.20
2019-04-12T09:47:46.460Z,70.20
2019-04-12T09:50:13.293Z,71.90
2019-04-12T09:52:40.124Z,71.70
2019-04-12T09:55:07.343Z,72.10
2019-04-12T09:57:34.177Z,72.70
2019-04-12T10:00:00.956Z,72.20
2019-04-12T10:02:27.736Z,71.70
2019-04-12T10:04:54.776Z,71.20
2019-04-12T10:07:21.677Z,70.20
2019-04-12T10:09:48.568Z,69.80
2019-04-12T10:12:15.414Z,70.20
2019-04-12T10:14:42.242Z,70.80
2019-04-12T10:17:09.081Z,69.70
2019-04-12T10:19:35.924Z,69.30
2019-04-12T10:22:02.753Z,69.80
2019-04-12T10:24:29.589Z,69.20
2019-04-12T10:26:56.377Z,69.00
2019-04-12T10:29:23.220Z,69.10
2019-04-12T10:31:50.057Z,68.30
2019-04-12T10:34:16.838Z,68.20
2019-04-12T10:36:50.983Z,68.30
2019-04-12T10:39:14.112Z,68.10
2019-04-12T10:41:40.932Z,68.30
2019-04-12T10:44:18.390Z,68.20
2019-04-12T10:46:47.175Z,69.50
2019-04-12T10:49:32.224Z,70.40
2019-04-12T10:52:00.880Z,70.10
2019-04-12T10:54:29.533Z,69.90
2019-04-12T10:56:56.371Z,68.90
2019-04-12T10:59:23.892Z,69.00
2019-04-12T11:01:50.737Z,67.00
2019-04-12T11:04:17.533Z,68.10
2019-04-12T11:06:44.371Z,66.70
2019-04-12T11:09:11.149Z,66.30
2019-04-12T11:11:37.977Z,67.80
2019-04-12T11:14:04.759Z,67.40
2019-04-12T11:16:31.600Z,67.40
2019-04-12T11:18:58.433Z,67.60
2019-04-12T11:21:25.269Z,68.10
2019-04-12T11:23:52.052Z,68.70
2019-04-12T11:26:18.896Z,69.40
2019-04-12T11:28:45.686Z,67.80
2019-04-12T11:31:12.465Z,68.20
2019-04-12T11:33:39.300Z,67.30
2019-04-12T11:36:06.120Z,66.00
2019-04-12T11:38:33.009Z,66.90
2019-04-12T11:40:59.852Z,67.10
2019-04-12T11:43:26.636Z,67.60
2019-04-12T11:45:53.453Z,66.50
2019-04-12T11:48:20.300Z,66.30
2019-04-12T11:50:47.169Z,67.00
2019-04-12T11:53:14.037Z,66.00
2019-04-12T11:55:40.861Z,65.90
2019-04-12T11:58:07.743Z,65.70
2019-04-12T12:00:48.677Z,65.90
2019-04-12T12:03:17.248Z,65.60
2019-04-12T12:05:51.653Z,65.50
2019-04-12T12:08:20.258Z,65.60
2019-04-12T12:10:48.904Z,64.40
2019-04-12T12:13:17.492Z,64.80
2019-04-12T12:15:54.717Z,65.10
2019-04-12T12:18:25.888Z,66.90
2019-04-12T12:20:52.665Z,67.10
2019-04-12T12:23:19.492Z,67.20
2019-04-12T12:25:46.338Z,66.80
2019-04-12T12:28:13.174Z,66.10
2019-04-12T12:30:40.014Z,65.80
2019-04-12T12:33:06.797Z,66.40
2019-04-12T12:35:33.931Z,66.10
2019-04-12T12:38:00.861Z,66.90
2019-04-12T12:40:27.697Z,66.90
2019-04-12T12:42:54.537Z,66.90
2019-04-12T12:45:21.368Z,68.00
2019-04-12T12:47:48.451Z,68.00
2019-04-12T12:50:15.292Z,67.80
2019-04-12T12:52:42.121Z,67.30
2019-04-12T12:55:08.952Z,68.10
2019-04-12T12:57:35.733Z,67.00
2019-04-12T13:00:05.579Z,66.20
2019-04-12T13:02:32.350Z,65.60
2019-04-12T13:04:59.207Z,65.60
2019-04-12T13:07:25.981Z,65.60
2019-04-12T13:09:52.768Z,65.00
2019-04-12T13:12:19.604Z,64.80
2019-04-12T13:14:46.384Z,65.30
2019-04-12T13:17:13.227Z,65.60
2019-04-12T13:19:39.996Z,65.10
2019-04-12T13:22:07.028Z,65.20
2019-04-12T13:24:33.825Z,65.40
2019-04-12T13:27:00.672Z,66.20
2019-04-12T13:29:27.448Z,66.60
2019-04-12T13:32:05.375Z,67.00
2019-04-12T13:34:46.073Z,65.90
2019-04-12T13:37:32.373Z,66.60
2019-04-12T13:40:10.144Z,66.00
2019-04-12T13:42:41.476Z,66.80
2019-04-12T13:45:09.454Z,67.80
2019-04-12T13:47:36.276Z,65.90
2019-04-12T13:50:05.526Z,67.70
2019-04-12T13:52:32.304Z,67.90
2019-04-12T13:54:59.456Z,66.40
2019-04-12T13:57:26.257Z,66.70
2019-04-12T13:59:53.092Z,67.90
2019-04-12T14:02:20.130Z,67.70
2019-04-12T14:04:47.023Z,68.20
2019-04-12T14:07:13.978Z,69.10
2019-04-12T14:09:40.801Z,68.10
2019-04-12T14:12:07.632Z,68.80
2019-04-12T14:14:34.647Z,69.90
2019-04-12T14:17:01.420Z,70.00
2019-04-12T14:19:28.264Z,69.70
2019-04-12T14:21:55.224Z,69.30
2019-04-12T14:24:22.021Z,68.80
2019-04-12T14:26:48.876Z,67.40
2019-04-12T14:29:15.842Z,68.10
2019-04-12T14:31:47.332Z,69.00
2019-04-12T14:34:34.936Z,68.40
2019-04-12T14:37:12.740Z,69.30
2019-04-12T14:39:39.577Z,67.80
2019-04-12T14:42:06.455Z,68.30
2019-04-12T14:44:35.100Z,68.90
2019-04-12T14:47:03.689Z,68.50
2019-04-12T14:49:30.472Z,67.40
2019-04-12T14:51:57.632Z,66.40
2019-04-12T14:54:24.562Z,67.80
2019-04-12T14:56:51.390Z,68.70
2019-04-12T14:59:19.317Z,69.10
2019-04-12T15:01:46.196Z,68.40
2019-04-12T15:04:12.977Z,68.10
2019-04-12T15:06:39.830Z,68.70
2019-04-12T15:09:06.998Z,69.20
2019-04-12T15:11:33.836Z,68.90
2019-04-12T15:14:00.621Z,69.40
2019-04-12T15:16:27.451Z,69.30
2019-04-12T15:18:54.227Z,68.10
2019-04-12T15:21:21.085Z,68.80
2019-04-12T15:23:47.860Z,69.20
2019-04-12T15:26:14.696Z,70.20
2019-04-12T15:28:41.522Z,69.30
2019-04-12T15:31:08.292Z,70.00
2019-04-12T15:33:35.130Z,70.30
2019-04-12T15:36:01.914Z,69.50
2019-04-12T15:38:28.743Z,70.40
2019-04-12T15:40:55.573Z,69.80
2019-04-12T15:43:22.397Z,70.30
2019-04-12T15:45:49.232Z,70.60
2019-04-12T15:48:16.021Z,70.90
2019-04-12T15:50:42.860Z,70.80
2019-04-12T15:53:09.637Z,71.20
2019-04-12T15:55:36.476Z,70.50
2019-04-12T15:58:03.705Z,70.10
2019-04-12T16:00:43.056Z,70.00
2019-04-12T16:03:09.944Z,69.90
2019-04-12T16:05:36.724Z,70.50
2019-04-12T16:08:04.256Z,70.40
2019-04-12T16:10:33.405Z,71.30
2019-04-12T16:13:06.816Z,70.90
2019-04-12T16:15:56.904Z,70.10
2019-04-12T16:18:23.940Z,70.70
2019-04-12T16:20:50.738Z,70.60
2019-04-12T16:23:20.953Z,70.50
2019-04-12T16:25:46.433Z,70.20
2019-04-12T16:28:18.301Z,71.30
2019-04-12T16:30:56.104Z,71.10
2019-04-12T16:33:27.287Z,71.20
2019-04-12T16:36:10.936Z,71.90
2019-04-12T16:38:39.586Z,71.80
2019-04-12T16:41:06.426Z,72.50
2019-04-12T16:43:33.617Z,72.00
2019-04-12T16:46:00.399Z,71.00
2019-04-12T16:48:27.232Z,70.90
2019-04-12T16:50:54.240Z,71.00
2019-04-12T16:53:21.089Z,71.70
2019-04-12T16:55:47.865Z,72.10
2019-04-12T16:58:14.651Z,71.80
2019-04-12T17:00:41.598Z,71.60
2019-04-12T17:03:08.432Z,71.80
2019-04-12T17:05:36.247Z,71.40
2019-04-12T17:08:04.261Z,71.60
2019-04-12T17:10:31.101Z,72.50
2019-04-12T17:12:57.932Z,73.30
2019-04-12T17:15:24.712Z,73.30
2019-04-12T17:17:51.552Z,73.80
2019-04-12T17:20:18.384Z,73.20
2019-04-12T17:22:45.231Z,73.40
2019-04-12T17:25:12.013Z,72.60
2019-04-12T17:27:38.792Z,73.80
2019-04-12T17:30:05.933Z,74.20
2019-04-12T17:32:32.749Z,72.80
2019-04-12T17:34:59.524Z,72.40
2019-04-12T17:37:26.372Z,72.60
2019-04-12T17:39:53.216Z,73.20
2019-04-12T17:42:20.101Z,72.70
2019-04-12T17:44:46.928Z,72.10
2019-04-12T17:47:13.757Z,73.30
2019-04-12T17:49:42.355Z,72.90
2019-04-12T17:52:16.846Z,73.30
2019-04-12T17:54:45.488Z,73.90
2019-04-12T17:57:14.093Z,73.90
2019-04-12T17:59:41.028Z,73.40
2019-04-12T18:02:09.618Z,73.30
2019-04-12T18:04:36.401Z,73.40
2019-04-12T18:07:03.242Z,73.40
2019-04-12T18:09:30.075Z,73.30
2019-04-12T18:11:56.908Z,73.60
2019-04-12T18:14:23.737Z,73.80
2019-04-12T18:16:51.383Z,73.30
2019-04-12T18:19:18.400Z,73.10
2019-04-12T18:21:45.188Z,73.20
2019-04-12T18:24:12.048Z,73.10
2019-04-12T18:26:38.830Z,73.90
2019-04-12T18:29:05.676Z,74.10
2019-04-12T18:31:32.501Z,74.50
2019-04-12T18:33:59.380Z,75.00
2019-04-12T18:36:26.220Z,74.70
2019-04-12T18:38:53.050Z,74.70
2019-04-12T18:41:19.885Z,74.80
2019-04-12T18:43:47.016Z,74.80
2019-04-12T18:46:14.116Z,74.70
2019-04-12T18:48:40.960Z,74.00
2019-04-12T18:51:07.738Z,74.30
2019-04-12T18:53:34.929Z,74.70
2019-04-12T18:56:02.109Z,74.70
2019-04-12T18:58:28.934Z,74.30
2019-04-12T19:00:55.724Z,74.70
2019-04-12T19:03:22.557Z,75.20
2019-04-12T19:05:49.402Z,75.60
2019-04-12T19:08:16.319Z,74.50
2019-04-12T19:10:43.078Z,74.40
2019-04-12T19:13:11.720Z,73.90
2019-04-12T19:15:38.649Z,74.90
2019-04-12T19:18:05.821Z,74.20
2019-04-12T19:20:33.657Z,74.20
2019-04-12T19:23:00.449Z,73.80
2019-04-12T19:25:27.281Z,73.50
2019-04-12T19:27:54.061Z,72.90
2019-04-12T19:30:22.731Z,72.50
2019-04-12T19:33:08.101Z,72.80
2019-04-12T19:35:39.515Z,73.60
2019-04-12T19:38:14.496Z,72.90
2019-04-12T19:40:41.340Z,72.90
2019-04-12T19:43:08.200Z,73.60
2019-04-12T19:45:35.044Z,73.00
2019-04-12T19:48:01.836Z,73.30
2019-04-12T19:50:28.610Z,73.00
2019-04-12T19:52:55.448Z,73.00
2019-04-12T19:55:22.224Z,73.40
2019-04-12T19:57:51.576Z,73.70
2019-04-12T20:00:18.356Z,73.70
2019-04-12T20:02:51.530Z,73.80
2019-04-12T20:05:13.944Z,73.20
2019-04-12T20:07:41.021Z,73.20
2019-04-12T20:10:07.985Z,72.50
2019-04-12T20:12:34.768Z,72.50
2019-04-12T20:15:01.557Z,72.30
2019-04-12T20:17:28.400Z,72.60
2019-04-12T20:19:55.179Z,72.70
2019-04-12T20:22:22.014Z,72.30
2019-04-12T20:24:48.956Z,72.40
2019-04-12T20:27:15.736Z,72.30
2019-04-12T20:29:42.528Z,73.10
2019-04-12T20:32:09.360Z,73.30
2019-04-12T20:34:36.143Z,73.50
2019-04-12T20:37:02.958Z,73.30
2019-04-12T20:39:29.788Z,73.60
2019-04-12T20:41:56.869Z,72.90
2019-04-12T20:44:26.733Z,72.70
2019-04-12T20:46:52.344Z,72.90
2019-04-12T20:49:19.177Z,72.50
2019-04-12T20:51:45.964Z,72.70
2019-04-12T20:54:12.830Z,73.10
2019-04-12T20:56:39.617Z,73.70
2019-04-12T20:59:06.460Z,73.70
2019-04-12T21:01:33.243Z,73.80
2019-04-12T21:04:00.072Z,74.40
2019-04-12T21:06:26.856Z,73.40
2019-04-12T21:08:53.717Z,73.60
2019-04-12T21:11:20.548Z,73.80
2019-04-12T21:13:47.332Z,74.10
2019-04-12T21:16:14.160Z,74.40
2019-04-12T21:18:40.945Z,74.80
2019-04-12T21:21:07.768Z,74.90
2019-04-12T21:23:34.554Z,74.80
2019-04-12T21:26:01.389Z,74.40
2019-04-12T21:28:28.215Z,74.80
2019-04-12T21:30:55.056Z,73.80
2019-04-12T21:33:28.408Z,74.10
2019-04-12T21:35:50.575Z,74.50
2019-04-12T21:38:17.360Z,75.10
2019-04-12T21:40:44.196Z,74.60
2019-04-12T21:43:11.032Z,75.20
2019-04-12T21:45:37.916Z,75.50
2019-04-12T21:48:05.091Z,75.10
2019-04-12T21:50:31.884Z,75.00
2019-04-12T21:52:58.724Z,75.30
2019-04-12T21:55:25.507Z,75.00
2019-04-12T21:57:52.327Z,75.10
2019-04-12T22:00:24.576Z,74.70
2019-04-12T22:02:51.365Z,75.10
2019-04-12T22:05:18.060Z,74.90
2019-04-12T22:07:44.897Z,75.30
2019-04-12T22:10:11.775Z,75.20
2019-04-12T22:12:38.616Z,75.70
2019-04-12T22:15:06.353Z,76.20
2019-04-12T22:17:33.176Z,76.00
2019-04-12T22:19:59.957Z,75.40
2019-04-12T22:22:26.809Z,75.60
2019-04-12T22:24:53.625Z,75.70
2019-04-12T22:27:20.456Z,75.80
2019-04-12T22:29:47.240Z,75.80
2019-04-12T22:32:18.540Z,75.60
2019-04-12T22:34:45.372Z,75.80
2019-04-12T22:37:12.157Z,76.00
2019-04-12T22:39:39.000Z,76.20
2019-04-12T22:42:05.824Z,76.60
2019-04-12T22:44:32.697Z,76.60
2019-04-12T22:46:59.549Z,76.80
2019-04-12T22:49:26.320Z,76.70
2019-04-12T22:51:53.157Z,77.00
2019-04-12T22:54:19.938Z,77.00
2019-04-12T22:56:46.762Z,77.20
2019-04-12T22:59:13.532Z,77.20
2019-04-12T23:01:40.374Z,77.40
2019-04-12T23:04:07.148Z,77.60
2019-04-12T23:06:33.972Z,77.70
2019-04-12T23:09:00.808Z,77.60
2019-04-12T23:11:27.660Z,77.60
2019-04-12T23:13:54.443Z,77.60
2019-04-12T23:16:21.268Z,77.90
2019-04-12T23:18:48.062Z,77.40
2019-04-12T23:21:14.832Z,77.00
2019-04-12T23:23:41.656Z,76.80
2019-04-12T23:26:08.484Z,76.90
2019-04-12T23:28:35.264Z,76.80
2019-04-12T23:31:03.926Z,77.50
2019-04-12T23:33:44.100Z,77.50
2019-04-12T23:36:10.932Z,77.60
2019-04-12T23:38:37.718Z,77.70
2019-04-12T23:41:04.540Z,77.00
2019-04-12T23:43:31.388Z,77.20
2019-04-12T23:45:58.276Z,77.20
2019-04-12T23:48:25.052Z,77.40
2019-04-12T23:50:51.880Z,77.70
2019-04-12T23:53:18.680Z,77.50
2019-04-12T23:55:45.524Z,77.60
2019-04-12T23:58:12.314Z,77.30
